Time;durP1;ratioP1;P1;durP2;ratioP2;P2;SDS_P1;SDS_P2;PMS_P1;PMS_P2;Temp;Humidity;BMP_temperature;BMP_pressure;BME280_temperature;BME280_humidity;BME280_pressure;Samples;Min_cycle;Max_cycle;Signal;HPM_P1;HPM_P2
2023/09/29 00:01:07;;;;;;;20.52;6.85;;;;;;;;;;5038227;28;20369;-76
2023/09/29 00:03:33;;;;;;;19.63;6.90;;;;;;;;;;5046793;28;20041;-76
2023/09/29 00:05:59;;;;;;;14.05;6.38;;;;;;;;;;5049476;28;20049;-76
2023/09/29 00:08:25;;;;;;;18.63;7.15;;;;;;;;;;5048940;28;20402;-77
2023/09/29 00:10:51;;;;;;;17.30;5.95;;;;;;;;;;5047294;28;20052;-77
2023/09/29 00:13:17;;;;;;;20.45;6.55;;;;;;;;;;5069523;28;20098;-77
2023/09/29 00:15:43;;;;;;;16.02;6.57;;;;;;;;;;5071112;28;20044;-77
2023/09/29 00:18:09;;;;;;;16.70;6.53;;;;;;;;;;5046912;28;20056;-77
2023/09/29 00:20:36;;;;;;;18.50;6.93;;;;;;;;;;5067998;28;20056;-77
2023/09/29 00:23:02;;;;;;;16.98;5.68;;;;;;;;;;5048006;28;20381;-76
2023/09/29 00:25:29;;;;;;;15.73;6.00;;;;;;;;;;5065222;28;20052;-77
2023/09/29 00:27:56;;;;;;;13.90;5.88;;;;;;;;;;5057500;28;20068;-77
2023/09/29 00:30:22;;;;;;;17.30;5.82;;;;;;;;;;5059667;28;20365;-77
2023/09/29 00:32:54;;;;;;;15.88;6.07;;;;;;;;;;5054040;28;20087;-77
2023/09/29 00:35:29;;;;;;;16.02;5.80;;;;;;;;;;5067263;28;20048;-77
2023/09/29 00:37:55;;;;;;;13.23;5.32;;;;;;;;;;5047234;28;20032;-77
2023/09/29 00:40:22;;;;;;;16.98;5.75;;;;;;;;;;5071432;28;20040;-77
2023/09/29 00:42:48;;;;;;;13.52;5.20;;;;;;;;;;5061545;28;20075;-77
2023/09/29 00:45:16;;;;;;;11.02;5.38;;;;;;;;;;5047250;28;20561;-77
2023/09/29 00:47:43;;;;;;;15.40;5.78;;;;;;;;;;5061530;28;20158;-77
2023/09/29 00:50:10;;;;;;;14.27;5.30;;;;;;;;;;5048137;28;20053;-77
2023/09/29 00:52:38;;;;;;;14.38;5.40;;;;;;;;;;5060847;28;20055;-77
2023/09/29 00:55:06;;;;;;;16.80;5.40;;;;;;;;;;5060245;28;20062;-77
2023/09/29 00:57:34;;;;;;;16.17;5.28;;;;;;;;;;5054399;28;20048;-77
2023/09/29 01:00:00;;;;;;;14.75;5.20;;;;;;;;;;5036968;28;20102;-77
2023/09/29 01:02:27;;;;;;;17.08;5.25;;;;;;;;;;5045406;28;20121;-77
2023/09/29 01:04:53;;;;;;;14.57;5.15;;;;;;;;;;5035560;28;20219;-77
2023/09/29 01:07:19;;;;;;;16.45;5.32;;;;;;;;;;5040712;28;20048;-76
2023/09/29 01:09:46;;;;;;;14.35;5.40;;;;;;;;;;5039762;28;20124;-77
2023/09/29 01:12:25;;;;;;;18.23;5.40;;;;;;;;;;5046935;28;20087;-77
2023/09/29 01:14:51;;;;;;;18.23;5.50;;;;;;;;;;5061893;28;20055;-77
2023/09/29 01:17:18;;;;;;;15.95;5.13;;;;;;;;;;5056592;28;20067;-77
2023/09/29 01:19:44;;;;;;;16.40;5.22;;;;;;;;;;5069161;28;20062;-76
2023/09/29 01:22:11;;;;;;;17.58;5.85;;;;;;;;;;5051010;28;20107;-77
2023/09/29 01:24:37;;;;;;;16.85;5.70;;;;;;;;;;5038988;28;20136;-77
2023/09/29 01:27:03;;;;;;;15.68;5.25;;;;;;;;;;5054103;28;20531;-77
2023/09/29 01:29:29;;;;;;;13.13;5.00;;;;;;;;;;5050633;28;20483;-77
2023/09/29 01:31:56;;;;;;;15.20;5.32;;;;;;;;;;5038721;28;20095;-77
2023/09/29 01:34:24;;;;;;;19.60;5.57;;;;;;;;;;5063298;28;20048;-77
2023/09/29 01:36:50;;;;;;;14.75;5.03;;;;;;;;;;5062042;28;20032;-77
2023/09/29 01:39:16;;;;;;;18.33;5.35;;;;;;;;;;5052413;28;20049;-77
2023/09/29 01:41:43;;;;;;;14.38;4.95;;;;;;;;;;5048395;28;20049;-77
2023/09/29 01:44:10;;;;;;;16.33;5.18;;;;;;;;;;5049836;28;20131;-77
2023/09/29 01:46:37;;;;;;;19.45;6.03;;;;;;;;;;5059046;28;20159;-77
2023/09/29 01:49:03;;;;;;;18.60;5.30;;;;;;;;;;5056134;28;20041;-77
2023/09/29 01:51:29;;;;;;;18.15;5.28;;;;;;;;;;5057007;28;20049;-77
2023/09/29 01:53:56;;;;;;;15.45;5.60;;;;;;;;;;5061621;28;20044;-77
2023/09/29 01:56:22;;;;;;;12.70;4.97;;;;;;;;;;5055561;28;20041;-77
2023/09/29 01:58:49;;;;;;;22.00;5.30;;;;;;;;;;5037490;28;20029;-77
2023/09/29 02:01:15;;;;;;;15.68;4.82;;;;;;;;;;5054265;28;20056;-77
2023/09/29 02:03:41;;;;;;;17.70;5.07;;;;;;;;;;5037573;28;20060;-77
2023/09/29 02:06:08;;;;;;;18.42;5.82;;;;;;;;;;5045039;28;20040;-77
2023/09/29 02:08:34;;;;;;;13.18;5.07;;;;;;;;;;5056233;28;20052;-77
2023/09/29 02:11:00;;;;;;;14.95;4.93;;;;;;;;;;5044516;28;20060;-77
2023/09/29 02:13:26;;;;;;;14.98;5.22;;;;;;;;;;5051763;28;20122;-77
2023/09/29 02:15:52;;;;;;;16.20;4.97;;;;;;;;;;5054427;28;20112;-77
2023/09/29 02:18:18;;;;;;;13.73;4.85;;;;;;;;;;5049193;28;20045;-77
2023/09/29 02:20:47;;;;;;;18.67;5.40;;;;;;;;;;5052753;28;20492;-77
2023/09/29 02:23:14;;;;;;;15.52;5.00;;;;;;;;;;5066778;28;20055;-76
2023/09/29 02:25:41;;;;;;;14.32;4.70;;;;;;;;;;5043884;28;20054;-77
2023/09/29 02:28:09;;;;;;;17.15;5.38;;;;;;;;;;5061281;28;20037;-77
2023/09/29 02:30:36;;;;;;;20.80;5.72;;;;;;;;;;5049277;28;20389;-77
2023/09/29 02:33:02;;;;;;;16.25;5.13;;;;;;;;;;5051778;28;20086;-77
2023/09/29 02:35:28;;;;;;;13.60;5.68;;;;;;;;;;5046748;28;20667;-77
2023/09/29 02:37:56;;;;;;;17.80;5.28;;;;;;;;;;5071529;28;20120;-77
2023/09/29 02:40:23;;;;;;;18.80;6.70;;;;;;;;;;5049104;28;20131;-77
2023/09/29 02:42:49;;;;;;;12.82;5.07;;;;;;;;;;5061202;28;20538;-77
2023/09/29 02:45:15;;;;;;;17.00;5.82;;;;;;;;;;5049528;28;20091;-77
2023/09/29 02:47:47;;;;;;;16.52;5.50;;;;;;;;;;5067122;28;20503;-77
2023/09/29 02:50:13;;;;;;;16.83;5.50;;;;;;;;;;5042516;28;20040;-77
2023/09/29 02:52:40;;;;;;;17.92;5.38;;;;;;;;;;5047853;28;20056;-77
2023/09/29 02:55:07;;;;;;;19.35;6.07;;;;;;;;;;5043318;28;20504;-77
2023/09/29 02:57:33;;;;;;;18.25;5.78;;;;;;;;;;5039323;28;20049;-77
2023/09/29 03:00:00;;;;;;;13.63;5.20;;;;;;;;;;5035346;28;20056;-77
2023/09/29 03:02:26;;;;;;;12.95;5.15;;;;;;;;;;5051885;28;20047;-77
2023/09/29 03:04:52;;;;;;;13.73;5.38;;;;;;;;;;5049950;28;20110;-77
2023/09/29 03:07:18;;;;;;;18.75;5.68;;;;;;;;;;5049362;28;20080;-77
2023/09/29 03:09:45;;;;;;;15.45;4.97;;;;;;;;;;5051095;28;20040;-77
2023/09/29 03:12:12;;;;;;;10.27;4.32;;;;;;;;;;5034495;28;20047;-76
2023/09/29 03:14:38;;;;;;;14.55;5.05;;;;;;;;;;5041935;28;20048;-77
2023/09/29 03:17:04;;;;;;;12.80;4.72;;;;;;;;;;5051991;28;20492;-77
2023/09/29 03:19:32;;;;;;;14.07;5.30;;;;;;;;;;5035255;28;20068;-77
2023/09/29 03:21:59;;;;;;;13.75;5.25;;;;;;;;;;5042437;28;20053;-77
2023/09/29 03:24:27;;;;;;;15.80;4.93;;;;;;;;;;5053144;28;20045;-77
2023/09/29 03:26:53;;;;;;;15.27;5.15;;;;;;;;;;5059561;28;20040;-77
2023/09/29 03:29:19;;;;;;;18.10;5.15;;;;;;;;;;5064462;28;20044;-78
2023/09/29 03:31:46;;;;;;;12.43;4.78;;;;;;;;;;5056822;28;20040;-77
2023/09/29 03:34:12;;;;;;;14.07;5.03;;;;;;;;;;5066844;28;20635;-77
2023/09/29 03:36:38;;;;;;;17.30;5.30;;;;;;;;;;5055857;28;20049;-77
2023/09/29 03:39:09;;;;;;;16.23;5.25;;;;;;;;;;5034406;28;20056;-77
2023/09/29 03:41:35;;;;;;;13.70;5.57;;;;;;;;;;5059683;28;20084;-77
2023/09/29 03:44:01;;;;;;;12.43;4.85;;;;;;;;;;5049194;28;20369;-77
2023/09/29 03:46:29;;;;;;;17.00;5.05;;;;;;;;;;5052512;28;20068;-77
2023/09/29 03:48:55;;;;;;;11.98;5.22;;;;;;;;;;5046261;28;20036;-77
2023/09/29 03:51:22;;;;;;;19.02;7.57;;;;;;;;;;5055068;28;20044;-77
2023/09/29 03:53:49;;;;;;;23.25;10.40;;;;;;;;;;5043813;28;20455;-77
2023/09/29 03:56:16;;;;;;;25.30;14.02;;;;;;;;;;5058192;28;20556;-77
2023/09/29 03:58:42;;;;;;;31.23;16.20;;;;;;;;;;5055769;28;20511;-77
2023/09/29 04:01:08;;;;;;;33.58;17.25;;;;;;;;;;5049023;28;20048;-76
2023/09/29 04:03:34;;;;;;;32.53;18.70;;;;;;;;;;5062856;28;20048;-77
2023/09/29 04:06:00;;;;;;;28.05;15.75;;;;;;;;;;5051878;28;20460;-77
2023/09/29 04:08:26;;;;;;;26.88;14.30;;;;;;;;;;5053752;28;20049;-77
2023/09/29 04:10:53;;;;;;;25.33;13.10;;;;;;;;;;5049514;28;20075;-78
2023/09/29 04:13:19;;;;;;;23.40;10.90;;;;;;;;;;5036198;28;20147;-78
2023/09/29 04:15:46;;;;;;;26.13;11.40;;;;;;;;;;5048200;28;20053;-78
2023/09/29 04:18:16;;;;;;;17.80;9.35;;;;;;;;;;5056868;28;20060;-78
2023/09/29 04:20:42;;;;;;;22.70;8.93;;;;;;;;;;5066893;28;20045;-78
2023/09/29 04:23:08;;;;;;;20.23;9.23;;;;;;;;;;5047040;28;20535;-77
2023/09/29 04:25:35;;;;;;;17.13;8.18;;;;;;;;;;5043242;28;20041;-77
2023/09/29 04:28:01;;;;;;;18.60;8.48;;;;;;;;;;5049746;28;20041;-78
2023/09/29 04:30:30;;;;;;;20.50;8.75;;;;;;;;;;5068370;28;20059;-78
2023/09/29 04:32:56;;;;;;;18.90;8.98;;;;;;;;;;5051771;28;20145;-78
2023/09/29 04:35:22;;;;;;;24.75;8.85;;;;;;;;;;5041255;28;20029;-78
2023/09/29 04:37:49;;;;;;;17.55;8.38;;;;;;;;;;5046885;28;20157;-78
2023/09/29 04:40:16;;;;;;;17.85;8.32;;;;;;;;;;5060589;28;20420;-77
2023/09/29 04:42:42;;;;;;;19.05;8.43;;;;;;;;;;5053496;28;20056;-78
2023/09/29 04:45:08;;;;;;;20.27;8.68;;;;;;;;;;5048014;28;20052;-78
2023/09/29 04:47:34;;;;;;;21.05;9.13;;;;;;;;;;5044308;28;20388;-78
2023/09/29 04:50:00;;;;;;;17.98;8.48;;;;;;;;;;5051963;28;20435;-78
2023/09/29 04:52:26;;;;;;;18.83;8.63;;;;;;;;;;5039873;28;20761;-77
2023/09/29 04:54:53;;;;;;;19.98;8.90;;;;;;;;;;5035638;28;20053;-77
2023/09/29 04:57:19;;;;;;;18.25;9.18;;;;;;;;;;5045909;28;20060;-78
2023/09/29 04:59:45;;;;;;;22.73;9.07;;;;;;;;;;5044023;28;20047;-78
2023/09/29 05:02:21;;;;;;;15.98;8.50;;;;;;;;;;5044476;28;20044;-77
2023/09/29 05:04:47;;;;;;;17.52;8.10;;;;;;;;;;5052069;28;20068;-77
2023/09/29 05:07:13;;;;;;;13.80;8.02;;;;;;;;;;5052982;28;20072;-77
2023/09/29 05:09:41;;;;;;;21.05;8.77;;;;;;;;;;5054752;28;20052;-77
2023/09/29 05:12:07;;;;;;;17.15;8.65;;;;;;;;;;5035265;28;20049;-78
2023/09/29 05:14:33;;;;;;;15.80;7.57;;;;;;;;;;5054675;28;20064;-77
2023/09/29 05:16:59;;;;;;;21.48;7.13;;;;;;;;;;5051713;28;20131;-77
2023/09/29 05:19:25;;;;;;;18.17;6.78;;;;;;;;;;5054137;28;20461;-78
2023/09/29 05:21:52;;;;;;;14.80;6.80;;;;;;;;;;5040477;28;20487;-77
2023/09/29 05:24:18;;;;;;;16.98;7.55;;;;;;;;;;5040928;28;20132;-77
2023/09/29 05:26:44;;;;;;;18.08;6.53;;;;;;;;;;5048439;28;20045;-77
2023/09/29 05:29:10;;;;;;;12.30;5.97;;;;;;;;;;5044746;28;20040;-77
2023/09/29 05:31:36;;;;;;;13.13;5.78;;;;;;;;;;5046766;28;20048;-78
2023/09/29 05:34:05;;;;;;;16.88;6.88;;;;;;;;;;5069344;28;20047;-77
2023/09/29 05:36:31;;;;;;;12.30;5.82;;;;;;;;;;5066487;28;20041;-77
2023/09/29 05:38:57;;;;;;;15.73;6.18;;;;;;;;;;5059617;28;20056;-77
2023/09/29 05:41:23;;;;;;;17.90;6.03;;;;;;;;;;5044332;28;20044;-77
2023/09/29 05:43:51;;;;;;;14.38;5.78;;;;;;;;;;5064982;28;20442;-77
2023/09/29 05:46:20;;;;;;;16.25;5.90;;;;;;;;;;5068016;28;20036;-78
2023/09/29 05:48:50;;;;;;;14.23;5.32;;;;;;;;;;5049968;28;20044;-78
2023/09/29 05:51:21;;;;;;;12.10;5.50;;;;;;;;;;5051523;28;20092;-78
2023/09/29 05:53:58;;;;;;;15.95;5.80;;;;;;;;;;5028674;28;20415;-77
2023/09/29 05:56:26;;;;;;;13.73;5.10;;;;;;;;;;5047548;28;20040;-77
2023/09/29 05:58:52;;;;;;;14.38;5.78;;;;;;;;;;5052417;28;20087;-77
2023/09/29 06:01:18;;;;;;;11.75;5.40;;;;;;;;;;5053860;28;20091;-77
2023/09/29 06:03:44;;;;;;;14.80;5.80;;;;;;;;;;5044973;28;20051;-80
2023/09/29 06:06:13;;;;;;;14.07;6.03;;;;;;;;;;5065648;28;20048;-77
2023/09/29 06:08:40;;;;;;;10.05;5.43;;;;;;;;;;5050556;28;20036;-77
2023/09/29 06:11:06;;;;;;;16.23;5.72;;;;;;;;;;5071842;28;20472;-77
2023/09/29 06:13:34;;;;;;;16.92;5.50;;;;;;;;;;5052178;28;20040;-77
2023/09/29 06:16:02;;;;;;;11.88;5.60;;;;;;;;;;5046451;28;20330;-77
2023/09/29 06:18:28;;;;;;;14.73;5.25;;;;;;;;;;5041670;28;20044;-76
2023/09/29 06:20:54;;;;;;;13.43;5.75;;;;;;;;;;5044502;28;20060;-77
2023/09/29 06:23:20;;;;;;;9.68;5.20;;;;;;;;;;5071860;28;20056;-76
2023/09/29 06:25:46;;;;;;;13.18;5.72;;;;;;;;;;5052520;28;20485;-77
2023/09/29 06:28:12;;;;;;;12.93;5.55;;;;;;;;;;5070500;28;20047;-77
2023/09/29 06:30:39;;;;;;;14.25;5.68;;;;;;;;;;5065472;28;20623;-77
2023/09/29 06:33:06;;;;;;;15.25;7.85;;;;;;;;;;5052261;28;20044;-77
2023/09/29 06:35:32;;;;;;;15.70;6.57;;;;;;;;;;5049258;28;20517;-77
2023/09/29 06:37:58;;;;;;;13.48;5.95;;;;;;;;;;5054014;28;20063;-77
2023/09/29 06:40:27;;;;;;;12.48;5.30;;;;;;;;;;5041642;28;20044;-77
2023/09/29 06:42:53;;;;;;;11.07;4.93;;;;;;;;;;5033857;28;20163;-77
2023/09/29 06:45:19;;;;;;;14.10;5.78;;;;;;;;;;5060530;28;20407;-78
2023/09/29 06:47:45;;;;;;;13.82;5.85;;;;;;;;;;5050052;28;20047;-77
2023/09/29 06:50:11;;;;;;;9.88;5.05;;;;;;;;;;5051437;28;20048;-77
2023/09/29 06:52:39;;;;;;;12.75;4.95;;;;;;;;;;5049255;28;20125;-77
2023/09/29 06:55:05;;;;;;;10.90;5.50;;;;;;;;;;5063050;28;20051;-77
2023/09/29 06:57:33;;;;;;;13.13;5.60;;;;;;;;;;5046764;28;20395;-76
2023/09/29 07:00:00;;;;;;;11.68;5.30;;;;;;;;;;5063806;28;20052;-78
2023/09/29 07:02:26;;;;;;;12.50;5.43;;;;;;;;;;5053757;28;20057;-78
2023/09/29 07:04:52;;;;;;;13.43;5.10;;;;;;;;;;5052190;28;20124;-78
2023/09/29 07:07:18;;;;;;;11.45;5.15;;;;;;;;;;5038838;28;20041;-78
2023/09/29 07:09:44;;;;;;;12.70;5.35;;;;;;;;;;5046710;28;20051;-78
2023/09/29 07:12:10;;;;;;;14.40;7.45;;;;;;;;;;5068230;28;20049;-78
2023/09/29 07:14:37;;;;;;;17.60;10.32;;;;;;;;;;5038246;28;20040;-78
2023/09/29 07:17:03;;;;;;;9.90;5.47;;;;;;;;;;5033513;28;20053;-78
2023/09/29 07:19:32;;;;;;;10.15;5.57;;;;;;;;;;5036442;28;20044;-78
2023/09/29 07:21:58;;;;;;;14.88;5.32;;;;;;;;;;5065363;28;20546;-78
2023/09/29 07:24:26;;;;;;;10.82;5.82;;;;;;;;;;5033584;28;20098;-78
2023/09/29 07:26:52;;;;;;;13.80;6.03;;;;;;;;;;5047856;28;20056;-78
2023/09/29 07:29:18;;;;;;;11.15;5.05;;;;;;;;;;5036208;28;20055;-78
2023/09/29 07:31:49;;;;;;;9.75;5.80;;;;;;;;;;5051104;28;20049;-78
2023/09/29 07:34:19;;;;;;;11.05;5.10;;;;;;;;;;5051796;28;20037;-78
2023/09/29 07:36:48;;;;;;;13.02;5.18;;;;;;;;;;5059446;28;20047;-78
2023/09/29 07:39:15;;;;;;;11.52;5.57;;;;;;;;;;5062737;28;20045;-78
2023/09/29 07:41:42;;;;;;;13.43;6.30;;;;;;;;;;5035381;28;20052;-78
2023/09/29 07:44:08;;;;;;;14.15;8.20;;;;;;;;;;5065886;28;20040;-78
2023/09/29 07:46:35;;;;;;;10.60;5.43;;;;;;;;;;5057111;28;20044;-79
2023/09/29 07:49:03;;;;;;;12.90;5.60;;;;;;;;;;5038372;28;20480;-78
2023/09/29 07:51:29;;;;;;;9.35;5.05;;;;;;;;;;5057526;28;20052;-78
2023/09/29 07:53:56;;;;;;;9.27;5.00;;;;;;;;;;5051550;28;20503;-78
2023/09/29 07:56:26;;;;;;;12.05;5.20;;;;;;;;;;5065371;28;20041;-78
2023/09/29 07:58:54;;;;;;;12.32;5.32;;;;;;;;;;5059146;28;20646;-78
2023/09/29 08:01:20;;;;;;;10.23;5.50;;;;;;;;;;5070586;28;20075;-78
2023/09/29 08:03:46;;;;;;;10.05;5.35;;;;;;;;;;5049839;28;20049;-78
2023/09/29 08:06:13;;;;;;;9.25;4.85;;;;;;;;;;5053775;28;20037;-78
2023/09/29 08:08:40;;;;;;;16.88;10.55;;;;;;;;;;5065949;28;20044;-78
2023/09/29 08:11:06;;;;;;;16.60;8.02;;;;;;;;;;5042519;28;20051;-78
2023/09/29 08:13:32;;;;;;;10.45;5.40;;;;;;;;;;5061170;28;20040;-78
2023/09/29 08:16:01;;;;;;;9.73;5.40;;;;;;;;;;5054457;28;20135;-78
2023/09/29 08:18:28;;;;;;;12.55;5.72;;;;;;;;;;5055217;28;20048;-78
2023/09/29 08:20:56;;;;;;;11.70;5.15;;;;;;;;;;5073306;28;20062;-78
2023/09/29 08:23:22;;;;;;;11.95;5.20;;;;;;;;;;5051703;28;20127;-78
2023/09/29 08:25:48;;;;;;;10.70;5.38;;;;;;;;;;5073810;28;20040;-78
2023/09/29 08:28:17;;;;;;;13.07;5.53;;;;;;;;;;5050902;28;20044;-78
2023/09/29 08:30:46;;;;;;;10.35;5.53;;;;;;;;;;5072582;28;20040;-78
2023/09/29 08:33:15;;;;;;;13.18;5.60;;;;;;;;;;5068020;28;20480;-78
2023/09/29 08:35:41;;;;;;;10.48;5.05;;;;;;;;;;5056514;28;20566;-78
2023/09/29 08:38:07;;;;;;;10.18;5.00;;;;;;;;;;5054301;28;20045;-78
2023/09/29 08:40:37;;;;;;;9.25;5.10;;;;;;;;;;5055278;28;20697;-77
2023/09/29 08:43:06;;;;;;;11.57;5.55;;;;;;;;;;5056979;28;20103;-78
2023/09/29 08:45:32;;;;;;;9.93;4.97;;;;;;;;;;5054474;28;20076;-78
2023/09/29 08:48:00;;;;;;;9.85;5.10;;;;;;;;;;5049107;28;20041;-78
2023/09/29 08:50:26;;;;;;;11.70;5.35;;;;;;;;;;5041659;28;20044;-78
2023/09/29 08:52:54;;;;;;;10.73;4.93;;;;;;;;;;5071160;28;20037;-77
2023/09/29 08:55:23;;;;;;;12.27;5.20;;;;;;;;;;5064502;28;20049;-78
2023/09/29 08:57:49;;;;;;;12.18;5.20;;;;;;;;;;5054033;28;20090;-78
2023/09/29 09:00:16;;;;;;;9.98;5.35;;;;;;;;;;5047723;28;20052;-77
2023/09/29 09:02:44;;;;;;;9.88;4.80;;;;;;;;;;5050930;28;20377;-77
2023/09/29 09:05:11;;;;;;;10.07;5.03;;;;;;;;;;5052793;28;20411;-77
2023/09/29 09:07:37;;;;;;;12.45;5.20;;;;;;;;;;5062260;28;20044;-77
2023/09/29 09:10:04;;;;;;;10.95;5.35;;;;;;;;;;5040535;28;20052;-78
2023/09/29 09:12:33;;;;;;;11.07;6.00;;;;;;;;;;5037484;28;20852;-78
2023/09/29 09:15:00;;;;;;;13.55;6.18;;;;;;;;;;5040712;28;20068;-78
2023/09/29 09:17:26;;;;;;;10.10;5.68;;;;;;;;;;5049643;28;20100;-78
2023/09/29 09:19:52;;;;;;;11.50;6.13;;;;;;;;;;5064412;28;20079;-78
2023/09/29 09:22:22;;;;;;;14.90;6.53;;;;;;;;;;5071812;28;20049;-78
2023/09/29 09:24:48;;;;;;;13.43;6.45;;;;;;;;;;5049561;28;20063;-77
2023/09/29 09:27:14;;;;;;;14.95;6.93;;;;;;;;;;5044459;28;20437;-78
2023/09/29 09:29:46;;;;;;;12.65;7.07;;;;;;;;;;5059064;28;20120;-78
2023/09/29 09:32:14;;;;;;;19.50;7.57;;;;;;;;;;5040463;28;20108;-78
2023/09/29 09:34:43;;;;;;;11.80;6.13;;;;;;;;;;5044848;28;20052;-78
2023/09/29 09:37:11;;;;;;;12.98;6.72;;;;;;;;;;5055195;28;20048;-78
2023/09/29 09:39:38;;;;;;;13.38;6.43;;;;;;;;;;5052525;28;20097;-78
2023/09/29 09:42:05;;;;;;;12.93;6.70;;;;;;;;;;5064886;28;20049;-78
2023/09/29 09:44:38;;;;;;;12.88;6.35;;;;;;;;;;5058617;28;20048;-79
2023/09/29 09:47:14;;;;;;;10.75;6.03;;;;;;;;;;5049411;28;20126;-79
2023/09/29 09:49:41;;;;;;;12.85;6.22;;;;;;;;;;5048754;28;20052;-78
2023/09/29 09:52:09;;;;;;;11.35;5.95;;;;;;;;;;5051149;28;20056;-78
2023/09/29 09:54:40;;;;;;;12.70;6.28;;;;;;;;;;5050007;28;20393;-78
2023/09/29 09:57:08;;;;;;;9.70;6.32;;;;;;;;;;5065390;28;20056;-78
2023/09/29 09:59:35;;;;;;;14.00;6.28;;;;;;;;;;5063567;28;20126;-78
2023/09/29 10:02:06;;;;;;;11.02;6.25;;;;;;;;;;5066768;28;20467;-78
2023/09/29 10:04:38;;;;;;;12.98;6.40;;;;;;;;;;5055269;28;20048;-78
2023/09/29 10:07:07;;;;;;;10.68;5.75;;;;;;;;;;5068683;28;20068;-77
2023/09/29 10:09:45;;;;;;;14.85;7.78;;;;;;;;;;5045571;28;20044;-78
2023/09/29 10:12:27;;;;;;;14.18;6.75;;;;;;;;;;5038940;28;20488;-78
2023/09/29 10:14:59;;;;;;;12.20;6.35;;;;;;;;;;5046626;28;20120;-78
2023/09/29 10:17:25;;;;;;;13.90;6.35;;;;;;;;;;5053534;28;20056;-78
2023/09/29 10:19:53;;;;;;;10.82;6.28;;;;;;;;;;5052958;28;20147;-78
2023/09/29 10:22:23;;;;;;;12.45;6.25;;;;;;;;;;5072526;28;20044;-78
2023/09/29 10:24:49;;;;;;;7.30;4.32;;;;;;;;;;5065115;28;20144;-79
2023/09/29 10:27:31;;;;;;;4.65;3.40;;;;;;;;;;5071298;28;20040;-79
2023/09/29 10:30:16;;;;;;;4.07;2.42;;;;;;;;;;5066551;28;20048;-79
2023/09/29 10:32:48;;;;;;;5.20;2.63;;;;;;;;;;5071031;28;20045;-79
2023/09/29 10:35:20;;;;;;;6.97;2.75;;;;;;;;;;5062592;28;20057;-79
2023/09/29 10:37:54;;;;;;;9.73;4.50;;;;;;;;;;5035238;28;20040;-81
2023/09/29 10:40:33;;;;;;;6.57;2.83;;;;;;;;;;5061336;28;20070;-79
2023/09/29 10:43:10;;;;;;;8.02;3.10;;;;;;;;;;5041467;28;20041;-79
2023/09/29 10:45:40;;;;;;;9.15;3.25;;;;;;;;;;5046273;28;20040;-79
2023/09/29 10:48:09;;;;;;;8.80;3.33;;;;;;;;;;5050111;28;20127;-79
2023/09/29 10:51:00;;;;;;;7.65;3.35;;;;;;;;;;5028293;28;20052;-79
2023/09/29 10:53:36;;;;;;;8.77;2.97;;;;;;;;;;5066738;28;20059;-77
2023/09/29 10:56:06;;;;;;;8.95;3.50;;;;;;;;;;5072294;28;20048;-78
2023/09/29 10:58:38;;;;;;;12.02;3.58;;;;;;;;;;5043531;28;20132;-78
2023/09/29 11:01:07;;;;;;;8.10;2.92;;;;;;;;;;5059795;28;20088;-78
2023/09/29 11:03:38;;;;;;;10.90;3.55;;;;;;;;;;5048479;28;20416;-78
2023/09/29 11:06:10;;;;;;;10.20;3.58;;;;;;;;;;5048117;28;20453;-78
2023/09/29 11:08:43;;;;;;;7.32;3.13;;;;;;;;;;5051151;28;20044;-79
2023/09/29 11:11:12;;;;;;;11.98;3.50;;;;;;;;;;5068097;28;20460;-79
2023/09/29 11:13:39;;;;;;;10.80;2.97;;;;;;;;;;5047532;28;20125;-79
2023/09/29 11:16:19;;;;;;;8.57;2.38;;;;;;;;;;5047941;28;20492;-79
2023/09/29 11:18:50;;;;;;;7.60;2.53;;;;;;;;;;5049256;28;20048;-78
2023/09/29 11:21:17;;;;;;;5.63;2.35;;;;;;;;;;5022972;28;20073;-79
2023/09/29 11:23:48;;;;;;;7.53;2.85;;;;;;;;;;5045397;28;20146;-79
2023/09/29 11:26:20;;;;;;;6.93;2.20;;;;;;;;;;5053028;28;20049;-79
2023/09/29 11:29:02;;;;;;;12.30;2.78;;;;;;;;;;5046626;28;20088;-79
2023/09/29 11:31:33;;;;;;;4.22;2.53;;;;;;;;;;5047634;28;20041;-79
2023/09/29 11:34:15;;;;;;;5.70;2.30;;;;;;;;;;5044743;28;20044;-79
2023/09/29 11:36:44;;;;;;;7.88;2.78;;;;;;;;;;5048978;28;20048;-79
2023/09/29 11:39:16;;;;;;;7.30;2.30;;;;;;;;;;5048019;28;20060;-78
2023/09/29 11:41:51;;;;;;;5.85;2.20;;;;;;;;;;5041143;28;20183;-78
2023/09/29 11:44:17;;;;;;;5.53;2.00;;;;;;;;;;5050709;28;20421;-78
2023/09/29 11:46:44;;;;;;;7.22;2.55;;;;;;;;;;5048667;28;20049;-78
2023/09/29 11:49:16;;;;;;;5.70;2.00;;;;;;;;;;5040472;28;20147;-78
2023/09/29 11:51:42;;;;;;;4.18;1.60;;;;;;;;;;5053969;28;20500;-78
2023/09/29 11:54:08;;;;;;;3.95;1.90;;;;;;;;;;5050666;28;20124;-78
2023/09/29 11:56:36;;;;;;;5.78;1.83;;;;;;;;;;5046227;28;20045;-79
2023/09/29 11:59:02;;;;;;;5.22;2.22;;;;;;;;;;5036910;28;20038;-79
2023/09/29 12:01:29;;;;;;;4.30;1.83;;;;;;;;;;5038891;28;20124;-78
2023/09/29 12:03:55;;;;;;;7.20;2.25;;;;;;;;;;5052151;28;20257;-77
2023/09/29 12:06:21;;;;;;;5.10;2.05;;;;;;;;;;5054170;28;20055;-78
2023/09/29 12:08:47;;;;;;;7.55;2.08;;;;;;;;;;5035177;28;20041;-78
2023/09/29 12:11:18;;;;;;;6.28;2.03;;;;;;;;;;5050100;28;20056;-78
2023/09/29 12:13:44;;;;;;;6.07;2.53;;;;;;;;;;5047469;28;20325;-78
2023/09/29 12:16:10;;;;;;;7.35;2.45;;;;;;;;;;5051884;28;20053;-78
2023/09/29 12:18:36;;;;;;;6.03;2.20;;;;;;;;;;5043960;28;20044;-78
2023/09/29 12:21:10;;;;;;;5.00;2.10;;;;;;;;;;5043648;28;20463;-78
2023/09/29 12:23:36;;;;;;;5.40;2.17;;;;;;;;;;5052779;28;20053;-77
2023/09/29 12:26:05;;;;;;;3.63;2.17;;;;;;;;;;5068898;28;20077;-78
2023/09/29 12:28:31;;;;;;;6.55;1.90;;;;;;;;;;5049936;28;20049;-76
2023/09/29 12:30:57;;;;;;;9.32;2.35;;;;;;;;;;5048364;28;20048;-77
2023/09/29 12:33:29;;;;;;;4.35;2.28;;;;;;;;;;5038929;28;20049;-78
2023/09/29 12:35:55;;;;;;;4.85;2.45;;;;;;;;;;5029844;28;20107;-78
2023/09/29 12:38:24;;;;;;;6.35;2.88;;;;;;;;;;5047221;28;20496;-78
2023/09/29 12:40:50;;;;;;;8.60;2.70;;;;;;;;;;5053610;28;20049;-78
2023/09/29 12:43:16;;;;;;;5.75;2.80;;;;;;;;;;5045644;28;20037;-79
2023/09/29 12:45:44;;;;;;;9.60;3.05;;;;;;;;;;5046947;28;20048;-79
2023/09/29 12:48:10;;;;;;;8.52;3.17;;;;;;;;;;5046807;28;20048;-79
2023/09/29 12:50:39;;;;;;;5.93;3.00;;;;;;;;;;5046254;28;20056;-78
2023/09/29 12:53:08;;;;;;;9.73;3.20;;;;;;;;;;5052059;28;20052;-78
2023/09/29 12:55:34;;;;;;;12.15;3.40;;;;;;;;;;5049345;28;20303;-80
2023/09/29 12:58:07;;;;;;;9.57;3.40;;;;;;;;;;5048078;28;20084;-78
2023/09/29 13:00:36;;;;;;;10.50;3.80;;;;;;;;;;5034665;28;20481;-78
2023/09/29 13:03:04;;;;;;;10.77;3.75;;;;;;;;;;5048059;28;20060;-79
2023/09/29 13:05:31;;;;;;;14.73;4.80;;;;;;;;;;5043546;28;20061;-78
2023/09/29 13:08:03;;;;;;;13.60;4.40;;;;;;;;;;5050338;28;20105;-79
2023/09/29 13:10:29;;;;;;;12.48;4.32;;;;;;;;;;5033778;28;20053;-79
2023/09/29 13:12:55;;;;;;;12.68;4.13;;;;;;;;;;5042007;28;20076;-78
2023/09/29 13:15:21;;;;;;;11.10;4.25;;;;;;;;;;5034359;28;20077;-77
2023/09/29 13:17:47;;;;;;;12.98;4.22;;;;;;;;;;5050923;28;20382;-77
2023/09/29 13:20:14;;;;;;;10.18;3.55;;;;;;;;;;5046541;28;20485;-78
2023/09/29 13:22:40;;;;;;;8.10;3.25;;;;;;;;;;5054883;28;20048;-79
2023/09/29 13:25:06;;;;;;;13.57;3.92;;;;;;;;;;5062182;28;20052;-77
2023/09/29 13:27:33;;;;;;;9.80;3.38;;;;;;;;;;5048536;28;20495;-79
2023/09/29 13:29:59;;;;;;;9.98;3.05;;;;;;;;;;5047184;28;20052;-79
2023/09/29 13:32:25;;;;;;;8.88;3.58;;;;;;;;;;5054767;28;20506;-79
2023/09/29 13:34:52;;;;;;;10.05;3.25;;;;;;;;;;5067780;28;20048;-78
2023/09/29 13:37:18;;;;;;;11.30;3.63;;;;;;;;;;5049107;28;20051;-79
2023/09/29 13:39:48;;;;;;;8.43;3.38;;;;;;;;;;5067264;28;20048;-78
2023/09/29 13:42:14;;;;;;;7.05;2.80;;;;;;;;;;5041219;28;20122;-78
2023/09/29 13:44:41;;;;;;;8.30;3.03;;;;;;;;;;5046752;28;20036;-79
2023/09/29 13:47:10;;;;;;;8.90;3.45;;;;;;;;;;5062544;28;20049;-79
2023/09/29 13:49:40;;;;;;;8.35;3.75;;;;;;;;;;5064191;28;20396;-80
2023/09/29 13:52:09;;;;;;;7.33;3.40;;;;;;;;;;5050698;28;20048;-80
2023/09/29 13:54:37;;;;;;;9.85;3.92;;;;;;;;;;5050369;28;20318;-78
2023/09/29 13:57:05;;;;;;;10.23;4.03;;;;;;;;;;5048278;28;20080;-80
2023/09/29 13:59:34;;;;;;;9.00;4.30;;;;;;;;;;5040244;28;20497;-79
2023/09/29 14:02:07;;;;;;;10.55;4.60;;;;;;;;;;5045037;28;20047;-79
2023/09/29 14:04:33;;;;;;;8.00;3.88;;;;;;;;;;5048487;28;20065;-79
2023/09/29 14:06:59;;;;;;;11.00;5.13;;;;;;;;;;5053389;28;20405;-78
2023/09/29 14:09:25;;;;;;;12.57;5.30;;;;;;;;;;5068596;28;20068;-78
2023/09/29 14:11:51;;;;;;;14.65;5.68;;;;;;;;;;5049202;28;20044;-79
2023/09/29 14:14:19;;;;;;;12.55;5.55;;;;;;;;;;5050715;28;20041;-79
2023/09/29 14:16:52;;;;;;;12.83;5.40;;;;;;;;;;5055991;28;20049;-74
2023/09/29 14:19:19;;;;;;;15.88;5.72;;;;;;;;;;5064291;28;20048;-79
2023/09/29 14:21:57;;;;;;;11.90;5.35;;;;;;;;;;5046413;28;20056;-80
2023/09/29 14:24:24;;;;;;;15.45;6.18;;;;;;;;;;5040236;28;20094;-81
2023/09/29 14:26:51;;;;;;;10.85;5.50;;;;;;;;;;5062009;28;20672;-80
2023/09/29 14:29:18;;;;;;;14.82;5.80;;;;;;;;;;5018954;28;20041;-80
2023/09/29 14:32:35;;;;;;;12.00;5.97;;;;;;;;;;5051239;28;20043;-82
2023/09/29 14:35:03;;;;;;;16.42;6.22;;;;;;;;;;5036819;28;20044;-81
2023/09/29 14:37:29;;;;;;;16.02;5.95;;;;;;;;;;5065791;28;20218;-80